KMSS/MSS METAR and TAF weather

Enter ICAO airport designator
Station Type Date Time Source
KMSS METAR 2020/01/23 17:53 UTC NOAA

KMSS 231753Z AUTO 24007KT 10SM CLR 02/M09 A3032 RMK AO2 SLP273 T00221089 10022 21044 50000


Station Type Date Time Source
KMSS Decoded METAR 2020/01/23 17:53 UTC NOAA

MASSENA INTERNATIONAL -RICHARDS FLD, NY, United States (KMSS) 44-56N 074-51W 66M
Jan 23, 2020 - 12:53 PM EST / 2020.01.23 1753 UTC
Wind: from the WSW (240 degrees) at 8 MPH (7 KT):0
Visibility: 10 mile(s):0
Sky conditions: clear
Temperature: 36.0 F (2.2 C)
Dew Point: 16.0 F (-8.9 C)
Relative Humidity: 43%
Pressure (altimeter): 30.32 in. Hg (1026 hPa)
Pressure tendency: 0.00 inches (0.0 hPa) higher than three hours ago
ob: KMSS 231753Z AUTO 24007KT 10SM CLR 02/M09 A3032 RMK AO2 SLP273 T00221089 10022 21044 50000
cycle: 18

Station Type Date Time Source
KMSS TAF 2020/01/23 18:22 UTC NOAA

TAF KMSS 231720Z 2318/2418 23007KT P6SM BKN200
FM232300 VRB03KT P6SM BKN200
FM241200 05005KT P6SM BKN120

Example: see airport list